Time;durP1;ratioP1;P1;durP2;ratioP2;P2;SDS_P1;SDS_P2;PMS_P1;PMS_P2;Temp;Humidity;BMP_temperature;BMP_pressure;BME280_temperature;BME280_humidity;BME280_pressure;Samples;Min_cycle;Max_cycle;Signal;HPM_P1;HPM_P2
2022/07/21 00:00:20;;;;;;;16.60;12.57;;;25.30;75.30;;;;;;5023804;28;20567;-78
2022/07/21 00:02:49;;;;;;;19.20;12.63;;;25.20;75.40;;;;;;5022773;28;20462;-78
2022/07/21 00:05:17;;;;;;;16.77;12.20;;;25.20;75.50;;;;;;5021156;28;20481;-77
2022/07/21 00:07:45;;;;;;;17.80;12.57;;;25.20;75.50;;;;;;5023193;28;20491;-77
2022/07/21 00:10:14;;;;;;;19.53;12.60;;;25.20;75.60;;;;;;5021928;28;20462;-78
2022/07/21 00:12:43;;;;;;;18.60;12.63;;;25.20;75.60;;;;;;5023799;28;20462;-77
2022/07/21 00:15:14;;;;;;;15.30;12.00;;;25.20;75.60;;;;;;5022626;28;20490;-77
2022/07/21 00:17:42;;;;;;;15.03;12.10;;;25.20;75.60;;;;;;5023245;28;20584;-77
2022/07/21 00:20:12;;;;;;;17.83;12.07;;;25.20;75.60;;;;;;5029133;28;20469;-76
2022/07/21 00:22:40;;;;;;;16.10;12.60;;;25.20;75.50;;;;;;5021498;28;20462;-76
2022/07/21 00:25:10;;;;;;;16.83;12.93;;;25.10;75.60;;;;;;5019037;28;20526;-76
2022/07/21 00:27:38;;;;;;;18.43;12.50;;;25.10;75.70;;;;;;5020986;28;20485;-76
2022/07/21 00:30:08;;;;;;;17.77;12.83;;;25.00;75.70;;;;;;5011239;28;20459;-77
2022/07/21 00:32:37;;;;;;;15.77;12.63;;;25.00;75.90;;;;;;5017223;28;20450;-77
2022/07/21 00:35:07;;;;;;;17.97;12.20;;;25.10;76.00;;;;;;5018534;28;20452;-77
2022/07/21 00:37:35;;;;;;;16.37;12.37;;;25.10;76.00;;;;;;5022968;28;20485;-76
2022/07/21 00:40:04;;;;;;;16.03;12.13;;;25.10;76.00;;;;;;5025234;28;20467;-76
2022/07/21 00:42:33;;;;;;;19.40;13.07;;;25.20;76.00;;;;;;5019662;28;21037;-76
2022/07/21 00:45:02;;;;;;;15.07;12.40;;;25.20;76.10;;;;;;5020484;28;20472;-76
2022/07/21 00:47:31;;;;;;;18.60;13.33;;;25.20;76.00;;;;;;5017770;28;20575;-76
2022/07/21 00:50:04;;;;;;;23.00;13.00;;;25.30;75.90;;;;;;5020434;28;21798;-76
2022/07/21 00:52:32;;;;;;;16.20;12.90;;;25.30;75.90;;;;;;5017747;28;20466;-76
2022/07/21 00:55:01;;;;;;;15.17;12.80;;;25.30;75.80;;;;;;5020244;28;20462;-76
2022/07/21 00:57:30;;;;;;;15.80;12.40;;;25.30;75.80;;;;;;5021563;28;20494;-76
2022/07/21 00:59:58;;;;;;;15.90;13.40;;;25.30;75.60;;;;;;5019996;28;20482;-76
2022/07/21 01:02:26;;;;;;;17.63;13.90;;;25.20;75.60;;;;;;5017094;28;20496;-76
2022/07/21 01:04:55;;;;;;;17.23;14.07;;;25.20;75.50;;;;;;5021118;28;20489;-76
2022/07/21 01:07:24;;;;;;;16.97;12.97;;;25.20;75.50;;;;;;5024658;28;20482;-77
2022/07/21 01:09:52;;;;;;;18.17;13.50;;;25.10;75.40;;;;;;5024631;28;20466;-77
2022/07/21 01:12:20;;;;;;;15.73;12.63;;;25.10;75.50;;;;;;5024435;28;20472;-77
2022/07/21 01:14:48;;;;;;;19.53;13.43;;;25.10;75.50;;;;;;5004127;28;20452;-77
2022/07/21 01:17:17;;;;;;;16.40;13.00;;;25.00;75.50;;;;;;5021257;28;20496;-76
2022/07/21 01:19:45;;;;;;;14.40;11.90;;;25.00;75.50;;;;;;5024798;28;20581;-75
2022/07/21 01:22:14;;;;;;;14.73;12.80;;;25.00;75.60;;;;;;5020639;28;20466;-76
2022/07/21 01:24:43;;;;;;;20.63;13.10;;;25.00;75.60;;;;;;5019324;28;20541;-76
2022/07/21 01:27:20;;;;;;;16.97;14.07;;;25.00;75.60;;;;;;5024973;28;20478;-75
2022/07/21 01:29:48;;;;;;;16.17;12.33;;;24.90;75.50;;;;;;5027296;28;20474;-75
2022/07/21 01:32:16;;;;;;;18.97;15.33;;;24.90;75.60;;;;;;5024230;28;20492;-76
2022/07/21 01:34:44;;;;;;;16.80;13.17;;;24.90;75.80;;;;;;5020677;28;20477;-76
2022/07/21 01:37:14;;;;;;;16.70;13.43;;;24.90;75.80;;;;;;5022588;28;20551;-77
2022/07/21 01:42:28;;;;;;;15.87;12.47;;;24.80;75.80;;;;;;5012681;28;20466;-77
2022/07/21 01:44:57;;;;;;;17.23;12.73;;;24.80;75.80;;;;;;5022136;28;20473;-77
2022/07/21 01:47:25;;;;;;;15.93;12.57;;;24.70;75.80;;;;;;5013937;28;20500;-77
2022/07/21 01:49:53;;;;;;;17.60;14.00;;;24.70;75.80;;;;;;5007456;28;20485;-77
2022/07/21 01:52:23;;;;;;;19.30;13.63;;;24.70;75.80;;;;;;5022987;28;20468;-76
2022/07/21 01:54:51;;;;;;;16.33;13.57;;;24.70;75.90;;;;;;5023930;28;20951;-77
2022/07/21 01:57:19;;;;;;;16.27;13.47;;;24.70;75.80;;;;;;5007597;28;20490;-76
2022/07/21 01:59:47;;;;;;;20.83;13.30;;;24.70;75.90;;;;;;5022563;28;20488;-77
2022/07/21 02:02:15;;;;;;;16.40;13.37;;;24.70;75.90;;;;;;5023507;28;20544;-77
2022/07/21 02:04:43;;;;;;;16.10;12.87;;;24.70;75.80;;;;;;5020034;28;20489;-77
2022/07/21 02:07:11;;;;;;;15.20;13.00;;;24.70;75.70;;;;;;5020828;28;20479;-77
2022/07/21 02:09:40;;;;;;;15.20;11.60;;;24.60;75.60;;;;;;5023107;28;20552;-77
2022/07/21 02:12:08;;;;;;;16.80;11.50;;;24.60;75.50;;;;;;5023370;28;20463;-76
2022/07/21 02:14:36;;;;;;;16.37;11.53;;;24.60;75.50;;;;;;5024241;28;20478;-77
2022/07/21 02:17:04;;;;;;;15.57;10.80;;;24.60;75.40;;;;;;5020716;28;20486;-77
2022/07/21 02:19:33;;;;;;;15.10;10.27;;;24.50;75.20;;;;;;5020035;28;20479;-77
2022/07/21 02:22:00;;;;;;;13.20;10.50;;;24.50;75.20;;;;;;5020607;28;20469;-77
2022/07/21 02:24:28;;;;;;;15.50;11.10;;;24.50;75.10;;;;;;5018539;28;20475;-77
2022/07/21 02:26:58;;;;;;;15.93;10.63;;;24.40;75.00;;;;;;5022822;28;20851;-76
2022/07/21 02:29:26;;;;;;;15.13;10.30;;;24.40;75.00;;;;;;5016997;28;20473;-76
2022/07/21 02:31:54;;;;;;;12.60;9.73;;;24.40;74.90;;;;;;5022323;28;20501;-76
2022/07/21 02:34:22;;;;;;;11.43;9.03;;;24.30;74.90;;;;;;5022885;28;21011;-76
2022/07/21 02:36:50;;;;;;;14.00;10.13;;;24.30;74.70;;;;;;5023823;28;20473;-77
2022/07/21 02:39:18;;;;;;;12.70;9.00;;;24.30;74.60;;;;;;5019007;28;20634;-78
2022/07/21 02:41:46;;;;;;;11.60;8.20;;;24.20;74.60;;;;;;5015636;28;20836;-78
2022/07/21 02:44:15;;;;;;;14.30;10.00;;;24.20;74.60;;;;;;5008794;28;20479;-78
2022/07/21 02:46:43;;;;;;;14.40;10.60;;;24.20;74.60;;;;;;5022635;28;21017;-77
2022/07/21 02:49:11;;;;;;;12.97;9.20;;;24.10;74.60;;;;;;5020292;28;20467;-77
2022/07/21 02:51:39;;;;;;;13.97;10.57;;;24.10;74.70;;;;;;5006160;28;20854;-77
2022/07/21 02:54:07;;;;;;;13.03;10.33;;;24.10;74.80;;;;;;5021303;28;20552;-77
2022/07/21 02:56:35;;;;;;;13.40;9.90;;;24.00;74.80;;;;;;5021471;28;20469;-77
2022/07/21 02:59:03;;;;;;;21.10;11.57;;;24.00;74.80;;;;;;5026688;28;20486;-76
2022/07/21 03:01:32;;;;;;;15.70;11.77;;;24.00;74.80;;;;;;5025394;28;20466;-77
2022/07/21 03:04:01;;;;;;;14.50;12.00;;;24.00;74.80;;;;;;5023531;28;20463;-76
2022/07/21 03:06:29;;;;;;;14.17;11.83;;;23.90;74.90;;;;;;5022773;28;20488;-76
2022/07/21 03:08:57;;;;;;;17.17;12.93;;;23.90;75.10;;;;;;5022262;28;20912;-76
2022/07/21 03:11:25;;;;;;;15.90;12.20;;;23.90;75.20;;;;;;5020030;28;20496;-76
2022/07/21 03:13:53;;;;;;;18.53;13.97;;;23.90;75.30;;;;;;5021953;28;20524;-76
2022/07/21 03:16:21;;;;;;;18.00;13.10;;;23.80;75.30;;;;;;5022369;28;20512;-77
2022/07/21 03:18:50;;;;;;;16.03;13.20;;;23.90;75.40;;;;;;5021524;28;20464;-76
2022/07/21 03:21:18;;;;;;;18.20;14.00;;;23.80;75.50;;;;;;5011665;28;20572;-76
2022/07/21 03:23:46;;;;;;;16.40;12.90;;;23.90;75.60;;;;;;5021527;28;20490;-76
2022/07/21 03:26:15;;;;;;;18.10;13.77;;;23.90;75.60;;;;;;5021358;28;20898;-75
2022/07/21 03:28:44;;;;;;;20.10;14.00;;;23.90;75.60;;;;;;5022409;28;21041;-76
2022/07/21 03:31:12;;;;;;;17.70;14.30;;;23.90;75.70;;;;;;5022498;28;21324;-76
2022/07/21 03:33:40;;;;;;;21.60;14.70;;;23.90;75.70;;;;;;5021886;28;20468;-77
2022/07/21 03:36:10;;;;;;;16.70;14.10;;;23.90;75.70;;;;;;5023557;28;20496;-78
2022/07/21 03:38:38;;;;;;;17.90;14.60;;;23.90;75.80;;;;;;5022283;28;20981;-77
2022/07/21 03:41:06;;;;;;;21.57;14.77;;;23.90;75.80;;;;;;5022621;28;20457;-77
2022/07/21 03:43:40;;;;;;;17.73;14.43;;;23.90;75.80;;;;;;5022056;28;20498;-77
2022/07/21 03:46:08;;;;;;;20.60;15.67;;;23.80;75.80;;;;;;5026628;28;20477;-75
2022/07/21 03:48:36;;;;;;;23.27;15.97;;;23.80;75.90;;;;;;5018579;28;20497;-77
2022/07/21 03:51:04;;;;;;;20.60;15.30;;;23.90;76.00;;;;;;5031133;28;20473;-78
2022/07/21 03:53:33;;;;;;;19.87;14.87;;;23.90;76.00;;;;;;5022168;28;20462;-78
2022/07/21 03:56:02;;;;;;;21.10;15.13;;;23.90;76.00;;;;;;5024153;28;20899;-78
2022/07/21 03:58:30;;;;;;;19.57;15.40;;;23.90;76.00;;;;;;5000201;28;20478;-78
2022/07/21 04:00:58;;;;;;;27.20;15.73;;;23.90;76.00;;;;;;5023805;28;20477;-77
2022/07/21 04:03:26;;;;;;;21.43;16.47;;;23.90;76.00;;;;;;5020317;28;20470;-77
2022/07/21 04:05:54;;;;;;;20.23;16.13;;;23.90;76.00;;;;;;5026540;28;20487;-76
2022/07/21 04:08:22;;;;;;;21.13;17.50;;;23.90;76.00;;;;;;5028017;28;20472;-78
2022/07/21 04:10:52;;;;;;;22.30;17.13;;;23.90;76.00;;;;;;5022669;28;20477;-77
2022/07/21 04:13:20;;;;;;;22.27;16.90;;;23.90;76.10;;;;;;5021753;28;20464;-77
2022/07/21 04:15:53;;;;;;;21.63;16.93;;;23.90;76.10;;;;;;5023005;28;20482;-76
2022/07/21 04:18:21;;;;;;;23.73;18.33;;;23.90;76.10;;;;;;5025271;28;20475;-76
2022/07/21 04:20:49;;;;;;;23.00;16.97;;;24.00;76.10;;;;;;5011827;28;20472;-76
2022/07/21 04:23:18;;;;;;;23.73;18.00;;;24.00;76.10;;;;;;5014174;28;20463;-76
2022/07/21 04:25:46;;;;;;;19.70;16.77;;;24.00;76.10;;;;;;5025270;28;20468;-76
2022/07/21 04:28:15;;;;;;;21.20;17.57;;;24.00;76.10;;;;;;5027847;28;20556;-76
2022/07/21 04:30:43;;;;;;;19.27;16.80;;;24.00;76.10;;;;;;5027596;28;20476;-76
2022/07/21 04:33:11;;;;;;;19.60;17.50;;;24.00;76.20;;;;;;5028836;28;20463;-74
2022/07/21 04:35:39;;;;;;;20.37;16.73;;;24.00;76.20;;;;;;5032263;28;20460;-76
2022/07/21 04:38:09;;;;;;;19.93;17.43;;;24.00;76.20;;;;;;5029263;28;20473;-76
2022/07/21 04:40:37;;;;;;;21.10;17.33;;;24.00;76.20;;;;;;5033630;28;20470;-76
2022/07/21 04:43:06;;;;;;;22.70;18.50;;;24.00;76.10;;;;;;5036079;28;20534;-77
2022/07/21 04:45:36;;;;;;;22.00;17.47;;;24.00;76.20;;;;;;5028766;28;20487;-76
2022/07/21 04:48:05;;;;;;;22.40;17.57;;;24.00;76.20;;;;;;5012555;28;20484;-77
2022/07/21 04:50:33;;;;;;;19.73;17.10;;;24.00;76.10;;;;;;5011743;28;20478;-76
2022/07/21 04:53:01;;;;;;;24.63;17.87;;;24.00;76.20;;;;;;5001391;28;20476;-76
2022/07/21 04:55:29;;;;;;;19.97;17.40;;;24.00;76.20;;;;;;5004069;28;20981;-77
2022/07/21 04:57:58;;;;;;;18.77;15.80;;;24.00;76.40;;;;;;5005056;28;20466;-77
2022/07/21 05:00:26;;;;;;;33.20;17.80;;;24.00;76.40;;;;;;5007192;28;21648;-77
2022/07/21 05:02:56;;;;;;;20.43;17.57;;;24.00;76.30;;;;;;5027266;28;20493;-77
2022/07/21 05:05:24;;;;;;;20.00;17.27;;;23.90;76.40;;;;;;5022598;28;21039;-77
2022/07/21 05:07:52;;;;;;;21.00;17.03;;;23.90;76.40;;;;;;5006309;28;21130;-77
2022/07/21 05:10:21;;;;;;;25.03;17.57;;;23.90;76.50;;;;;;5025709;28;20472;-77
2022/07/21 05:12:49;;;;;;;20.43;17.40;;;24.00;76.60;;;;;;5024302;28;20449;-77
2022/07/21 05:15:17;;;;;;;22.97;17.67;;;24.00;76.60;;;;;;5020768;28;20453;-77
2022/07/21 05:17:45;;;;;;;20.87;16.60;;;24.00;76.70;;;;;;5025488;28;20516;-77
2022/07/21 05:20:15;;;;;;;21.80;16.80;;;24.10;76.80;;;;;;5025879;28;20460;-77
2022/07/21 05:22:43;;;;;;;22.30;17.50;;;24.30;76.80;;;;;;5026204;28;20467;-77
2022/07/21 05:25:11;;;;;;;21.63;18.17;;;24.40;76.60;;;;;;5025764;28;20470;-77
2022/07/21 05:27:39;;;;;;;19.50;16.20;;;24.40;76.50;;;;;;5024255;28;20475;-77
2022/07/21 05:30:08;;;;;;;17.87;14.80;;;24.50;76.50;;;;;;5023445;28;20476;-77
2022/07/21 05:32:36;;;;;;;22.13;15.77;;;24.60;76.60;;;;;;5023553;28;20447;-77
2022/07/21 05:35:12;;;;;;;31.77;15.77;;;24.70;76.80;;;;;;5015088;28;20462;-77
2022/07/21 05:37:42;;;;;;;20.23;16.03;;;25.20;76.90;;;;;;5025652;28;20502;-77
2022/07/21 05:40:11;;;;;;;20.40;15.87;;;25.90;75.60;;;;;;5022650;28;20477;-76
2022/07/21 05:42:39;;;;;;;16.83;14.40;;;26.20;73.60;;;;;;5023192;28;20497;-76
2022/07/21 05:45:09;;;;;;;16.20;13.63;;;26.10;73.10;;;;;;5009903;28;21147;-77
2022/07/21 05:47:37;;;;;;;16.63;13.20;;;25.80;72.90;;;;;;5022376;28;20589;-77
2022/07/21 05:50:06;;;;;;;18.17;13.80;;;25.60;73.00;;;;;;5024802;28;20482;-77
2022/07/21 05:52:34;;;;;;;18.83;14.40;;;25.30;73.30;;;;;;5025608;28;20466;-77
2022/07/21 05:55:04;;;;;;;17.40;13.50;;;25.20;73.50;;;;;;5026009;28;20466;-77
2022/07/21 05:57:32;;;;;;;23.83;15.87;;;25.00;73.60;;;;;;5026211;28;21315;-78
2022/07/21 06:00:00;;;;;;;18.23;14.37;;;24.90;73.80;;;;;;5003112;28;20953;-78
2022/07/21 06:02:35;;;;;;;17.43;14.53;;;24.80;74.10;;;;;;5021772;28;20503;-77
2022/07/21 06:05:03;;;;;;;18.80;14.30;;;24.80;74.20;;;;;;5024062;28;20462;-77
2022/07/21 06:07:31;;;;;;;20.60;15.80;;;24.70;74.40;;;;;;5029941;28;20493;-77
2022/07/21 06:10:00;;;;;;;21.77;15.67;;;24.70;74.50;;;;;;5023053;28;20465;-77
2022/07/21 06:12:30;;;;;;;20.50;15.97;;;24.70;74.50;;;;;;5021573;28;20500;-77
2022/07/21 06:14:57;;;;;;;19.03;15.60;;;24.70;74.60;;;;;;5013071;28;20454;-77
2022/07/21 06:17:25;;;;;;;19.43;14.80;;;24.60;74.70;;;;;;5021457;28;20546;-77
2022/07/21 06:19:53;;;;;;;17.60;13.60;;;24.80;75.70;;;;;;5024573;28;20452;-78
2022/07/21 06:22:21;;;;;;;18.93;14.17;;;25.20;75.10;;;;;;5029182;28;20933;-77
2022/07/21 06:24:49;;;;;;;16.20;13.03;;;25.30;74.20;;;;;;5024781;28;21269;-77
2022/07/21 06:27:17;;;;;;;15.83;12.00;;;25.30;73.80;;;;;;5024496;28;20492;-77
2022/07/21 06:29:48;;;;;;;14.47;11.80;;;25.20;73.80;;;;;;5024123;28;20493;-77
2022/07/21 06:32:15;;;;;;;15.23;12.40;;;25.20;73.90;;;;;;5020091;28;20506;-78
2022/07/21 06:34:46;;;;;;;22.00;13.10;;;25.20;73.80;;;;;;5018703;28;20455;-77
2022/07/21 06:37:14;;;;;;;13.67;11.80;;;25.20;73.50;;;;;;5020312;28;20466;-78
2022/07/21 06:39:42;;;;;;;17.70;11.37;;;25.20;73.40;;;;;;5024266;28;21248;-77
2022/07/21 06:42:10;;;;;;;16.00;13.53;;;25.10;73.30;;;;;;5023103;28;21030;-77
2022/07/21 06:44:38;;;;;;;17.30;12.53;;;25.10;73.30;;;;;;5023073;28;20966;-77
2022/07/21 06:47:07;;;;;;;16.80;12.40;;;25.10;73.30;;;;;;5017700;28;20489;-78
2022/07/21 06:49:35;;;;;;;15.20;11.70;;;25.10;73.30;;;;;;5022760;28;20470;-77
2022/07/21 06:52:03;;;;;;;15.67;12.80;;;25.10;73.20;;;;;;5021937;28;20459;-78
2022/07/21 06:54:31;;;;;;;13.93;10.50;;;25.10;73.30;;;;;;5021681;28;21229;-77
2022/07/21 06:56:59;;;;;;;15.60;11.13;;;25.10;73.20;;;;;;5020346;28;20495;-78
2022/07/21 06:59:27;;;;;;;13.43;10.70;;;25.00;73.00;;;;;;5021878;28;20485;-77
2022/07/21 07:01:56;;;;;;;15.20;10.63;;;25.00;72.80;;;;;;5022021;28;20473;-77
2022/07/21 07:04:25;;;;;;;13.17;10.20;;;25.00;72.80;;;;;;5019009;28;20466;-77
2022/07/21 07:06:55;;;;;;;12.57;10.20;;;25.00;72.70;;;;;;5022064;28;20477;-78
2022/07/21 07:09:23;;;;;;;11.70;10.13;;;25.00;72.60;;;;;;5023952;28;20550;-78
2022/07/21 07:11:52;;;;;;;14.07;9.87;;;25.00;72.50;;;;;;5019684;28;21079;-77
2022/07/21 07:14:40;;;;;;;13.00;9.77;;;25.00;72.30;;;;;;5022064;28;20471;-77
2022/07/21 07:17:07;;;;;;;18.50;9.73;;;25.10;72.20;;;;;;5022122;28;20493;-77
2022/07/21 07:19:37;;;;;;;14.53;10.83;;;25.10;72.20;;;;;;5025801;28;20976;-78
2022/07/21 07:22:05;;;;;;;12.73;9.43;;;25.10;72.00;;;;;;5022573;28;20452;-77
2022/07/21 07:24:33;;;;;;;10.53;9.10;;;25.10;71.80;;;;;;5018721;28;20471;-77
2022/07/21 07:27:01;;;;;;;12.47;10.00;;;25.10;71.80;;;;;;5018214;28;20493;-77
2022/07/21 07:29:30;;;;;;;12.50;10.40;;;25.10;71.70;;;;;;5018994;28;20489;-77
2022/07/21 07:31:58;;;;;;;12.33;9.53;;;25.10;71.60;;;;;;5015684;28;20578;-77
2022/07/21 07:34:26;;;;;;;13.40;10.57;;;25.10;71.60;;;;;;5021906;28;20459;-77
2022/07/21 07:36:56;;;;;;;13.20;10.20;;;25.20;71.60;;;;;;5023708;28;21062;-78
2022/07/21 07:39:24;;;;;;;13.43;10.23;;;25.20;71.60;;;;;;5019465;28;20475;-78
2022/07/21 07:41:53;;;;;;;12.50;9.87;;;25.30;71.60;;;;;;5018578;28;20511;-77
2022/07/21 07:44:21;;;;;;;14.60;9.40;;;25.40;71.40;;;;;;5022580;28;20457;-78
2022/07/21 07:46:49;;;;;;;10.43;8.13;;;25.40;71.20;;;;;;5016040;28;20483;-77
2022/07/21 07:49:18;;;;;;;12.43;7.80;;;25.40;70.80;;;;;;5011111;28;20501;-78
2022/07/21 07:51:46;;;;;;;15.17;8.10;;;25.40;70.40;;;;;;5018735;28;20470;-78
2022/07/21 07:54:16;;;;;;;15.33;9.20;;;25.40;70.30;;;;;;5021719;28;20459;-77
2022/07/21 07:56:44;;;;;;;14.53;9.73;;;25.40;70.20;;;;;;5021425;28;20470;-77
2022/07/21 07:59:12;;;;;;;13.40;9.43;;;25.30;70.00;;;;;;5021743;28;20466;-77
2022/07/21 08:01:40;;;;;;;13.07;9.43;;;25.30;70.00;;;;;;5022636;28;20484;-78
2022/07/21 08:04:08;;;;;;;11.60;9.13;;;25.30;70.10;;;;;;5018627;28;20493;-77
2022/07/21 08:06:36;;;;;;;12.40;8.43;;;25.30;69.90;;;;;;5017933;28;20523;-77
2022/07/21 08:09:04;;;;;;;13.00;9.77;;;25.30;70.00;;;;;;5021956;28;20483;-77
2022/07/21 08:11:33;;;;;;;14.10;9.43;;;25.40;69.90;;;;;;5019907;28;20457;-77
2022/07/21 08:14:01;;;;;;;13.83;10.73;;;25.50;69.90;;;;;;5020743;28;20522;-78
2022/07/21 08:16:29;;;;;;;11.97;9.70;;;25.50;69.80;;;;;;5025236;28;20485;-77
2022/07/21 08:18:57;;;;;;;12.30;10.17;;;25.50;69.70;;;;;;5026462;28;20533;-78
2022/07/21 08:21:30;;;;;;;13.80;10.30;;;25.60;69.60;;;;;;5025033;28;20463;-77
2022/07/21 08:24:18;;;;;;;16.33;9.80;;;25.60;69.50;;;;;;5023767;28;20462;-77
2022/07/21 08:26:47;;;;;;;12.63;9.67;;;25.60;69.40;;;;;;5022323;28;20480;-77
2022/07/21 08:29:15;;;;;;;14.97;9.67;;;25.60;69.30;;;;;;5022469;28;20482;-77
2022/07/21 08:31:43;;;;;;;12.50;9.97;;;25.60;69.20;;;;;;5022878;28;20484;-77
2022/07/21 08:34:12;;;;;;;9.77;7.10;;;25.70;69.10;;;;;;5025669;28;20981;-78
2022/07/21 08:36:39;;;;;;;12.70;8.30;;;25.70;68.90;;;;;;5014396;28;20484;-77
2022/07/21 08:39:07;;;;;;;10.70;8.13;;;25.70;68.60;;;;;;5025008;28;21302;-77
2022/07/21 08:41:38;;;;;;;10.20;8.80;;;25.60;68.40;;;;;;5022615;28;20471;-77
2022/07/21 08:44:10;;;;;;;12.57;9.00;;;25.60;68.40;;;;;;5023780;28;20451;-78
2022/07/21 08:46:41;;;;;;;10.43;8.90;;;25.60;68.40;;;;;;5025246;28;20587;-77
2022/07/21 08:49:10;;;;;;;12.23;8.70;;;25.60;68.30;;;;;;5024854;28;20481;-77
2022/07/21 08:51:38;;;;;;;13.70;10.30;;;25.60;68.20;;;;;;5023998;28;21066;-78
2022/07/21 08:54:06;;;;;;;12.53;9.53;;;25.50;68.10;;;;;;5026633;28;20469;-77
2022/07/21 08:56:34;;;;;;;16.00;9.53;;;25.40;68.10;;;;;;5010629;28;20485;-77
2022/07/21 08:59:02;;;;;;;11.87;9.67;;;25.30;68.30;;;;;;5023800;28;20460;-77
2022/07/21 09:01:34;;;;;;;12.53;10.10;;;25.30;68.40;;;;;;5026823;28;20487;-77
2022/07/21 09:04:21;;;;;;;14.00;10.23;;;25.20;68.40;;;;;;5006586;28;20540;-78
2022/07/21 09:06:57;;;;;;;13.67;10.60;;;25.10;68.70;;;;;;5022863;28;20988;-77
2022/07/21 09:09:25;;;;;;;11.13;9.50;;;25.10;68.90;;;;;;5023498;28;20478;-78
2022/07/21 09:11:54;;;;;;;13.60;10.37;;;25.20;68.90;;;;;;5018871;28;20463;-78
2022/07/21 09:14:24;;;;;;;9.73;8.37;;;25.30;68.90;;;;;;5023133;28;20470;-77
2022/07/21 09:16:56;;;;;;;12.47;8.00;;;25.30;68.90;;;;;;5025174;28;20567;-77
2022/07/21 09:19:33;;;;;;;10.27;7.73;;;25.50;68.90;;;;;;5023828;28;20979;-78
2022/07/21 09:22:12;;;;;;;10.77;8.33;;;25.60;68.70;;;;;;5019953;28;20460;-77
2022/07/21 09:24:40;;;;;;;9.93;7.57;;;25.70;68.50;;;;;;5019982;28;20481;-78
2022/07/21 09:27:11;;;;;;;9.50;6.77;;;25.80;68.30;;;;;;5020405;28;21156;-77
2022/07/21 09:29:45;;;;;;;13.03;7.07;;;25.80;68.00;;;;;;5023508;28;20487;-77
2022/07/21 09:32:23;;;;;;;10.20;6.67;;;25.80;67.80;;;;;;5023563;28;21132;-77
2022/07/21 09:34:52;;;;;;;10.23;7.70;;;25.80;67.40;;;;;;5020361;28;20569;-77
2022/07/21 09:37:22;;;;;;;10.37;7.07;;;25.70;67.20;;;;;;5022095;28;20485;-77
2022/07/21 09:39:53;;;;;;;10.53;8.00;;;25.60;67.20;;;;;;5025683;28;20452;-77
2022/07/21 09:42:24;;;;;;;8.60;6.80;;;25.70;67.30;;;;;;5024965;28;20494;-77
2022/07/21 09:44:54;;;;;;;9.07;6.97;;;25.70;67.20;;;;;;5023266;28;20514;-77
2022/07/21 09:47:26;;;;;;;10.30;5.80;;;25.70;67.30;;;;;;5012798;28;20993;-77
2022/07/21 09:49:55;;;;;;;11.73;7.07;;;25.80;67.10;;;;;;5025005;28;20591;-77
2022/07/21 09:52:45;;;;;;;9.57;6.50;;;25.90;67.00;;;;;;5013391;28;20476;-77
2022/07/21 09:55:14;;;;;;;7.23;5.87;;;26.00;66.90;;;;;;5004492;28;20481;-77
2022/07/21 09:57:43;;;;;;;13.17;5.97;;;26.00;66.70;;;;;;5021487;28;20490;-77
2022/07/21 10:00:14;;;;;;;8.83;5.17;;;26.10;66.50;;;;;;5024428;28;20454;-77
2022/07/21 10:02:48;;;;;;;7.23;4.27;;;26.20;66.00;;;;;;5023176;28;20535;-77
2022/07/21 10:05:19;;;;;;;7.23;4.80;;;26.20;65.60;;;;;;5021409;28;20461;-78
2022/07/21 10:07:50;;;;;;;8.90;5.90;;;26.20;65.60;;;;;;5023181;28;21030;-77
2022/07/21 10:10:19;;;;;;;8.17;5.77;;;26.30;65.40;;;;;;5025249;28;20499;-78
2022/07/21 10:12:49;;;;;;;8.97;5.23;;;26.30;65.20;;;;;;5022632;28;20443;-77
2022/07/21 10:15:18;;;;;;;8.87;6.50;;;26.40;65.00;;;;;;5017603;28;20890;-77
2022/07/21 10:17:52;;;;;;;8.50;5.90;;;26.40;65.00;;;;;;5022035;28;20522;-77
2022/07/21 10:20:27;;;;;;;8.57;6.10;;;26.30;64.80;;;;;;5022368;28;20462;-77
2022/07/21 10:23:03;;;;;;;8.37;6.13;;;26.30;64.80;;;;;;5022161;28;20463;-77
2022/07/21 10:25:31;;;;;;;9.97;6.97;;;26.30;64.70;;;;;;5008136;28;20545;-77
2022/07/21 10:28:17;;;;;;;8.40;6.00;;;26.30;64.70;;;;;;5020476;28;20469;-78
2022/07/21 10:30:47;;;;;;;8.50;5.73;;;26.40;64.70;;;;;;5020836;28;20488;-77
2022/07/21 10:33:18;;;;;;;9.83;6.03;;;26.40;64.80;;;;;;5023046;28;20467;-77
2022/07/21 10:35:47;;;;;;;7.40;5.40;;;26.40;64.70;;;;;;5024217;28;20545;-77
2022/07/21 10:38:29;;;;;;;8.70;5.40;;;26.50;64.60;;;;;;5020022;28;21260;-77
2022/07/21 10:40:59;;;;;;;8.30;5.67;;;26.60;64.20;;;;;;5020756;28;20790;-77
2022/07/21 10:43:38;;;;;;;7.43;5.20;;;26.60;64.00;;;;;;5022266;28;20585;-77
2022/07/21 10:46:38;;;;;;;7.20;5.00;;;26.60;63.70;;;;;;5022473;28;21026;-77
2022/07/21 10:49:09;;;;;;;8.70;5.23;;;26.60;63.70;;;;;;5018201;28;20473;-77
2022/07/21 10:51:39;;;;;;;7.97;5.47;;;26.60;63.70;;;;;;5020282;28;21209;-77
2022/07/21 10:54:25;;;;;;;11.40;4.90;;;26.70;63.40;;;;;;5022575;28;20481;-77
2022/07/21 10:57:26;;;;;;;8.90;5.10;;;26.80;63.10;;;;;;5022696;28;20475;-77
2022/07/21 11:00:23;;;;;;;7.13;5.50;;;26.80;63.10;;;;;;5019582;28;20464;-77
2022/07/21 11:02:53;;;;;;;7.10;4.90;;;26.90;63.00;;;;;;5025092;28;20458;-77
2022/07/21 11:05:25;;;;;;;8.83;5.57;;;26.90;63.20;;;;;;5020844;28;20462;-77
2022/07/21 11:08:13;;;;;;;8.33;5.40;;;27.10;63.00;;;;;;5019708;28;20502;-77
2022/07/21 11:10:43;;;;;;;8.20;4.30;;;27.20;62.40;;;;;;5021841;28;20494;-78
2022/07/21 11:13:12;;;;;;;6.10;3.83;;;27.20;62.00;;;;;;5021191;28;20879;-78
2022/07/21 11:15:48;;;;;;;6.60;4.57;;;27.30;61.80;;;;;;5020085;28;20585;-77
2022/07/21 11:18:20;;;;;;;6.20;4.13;;;27.20;61.30;;;;;;5021909;28;20466;-77
2022/07/21 11:21:09;;;;;;;10.50;5.47;;;27.20;61.30;;;;;;5025486;28;20458;-78
2022/07/21 11:23:43;;;;;;;7.87;5.50;;;27.20;61.10;;;;;;5022313;28;20953;-77
2022/07/21 11:26:13;;;;;;;7.43;5.53;;;27.20;61.20;;;;;;5024968;28;20497;-77
2022/07/21 11:28:41;;;;;;;8.17;6.47;;;27.10;61.30;;;;;;5013708;28;20833;-77
2022/07/21 11:31:12;;;;;;;8.23;6.23;;;27.10;61.30;;;;;;5027174;28;20831;-78
2022/07/21 11:33:41;;;;;;;8.23;5.33;;;27.10;61.30;;;;;;5027809;28;20459;-78
2022/07/21 11:36:22;;;;;;;7.97;6.20;;;27.10;61.30;;;;;;5031641;28;20513;-77
2022/07/21 11:39:06;;;;;;;7.33;5.50;;;27.10;61.50;;;;;;5030223;28;20454;-78
2022/07/21 11:41:36;;;;;;;8.80;5.97;;;27.00;61.40;;;;;;5028289;28;20857;-77
2022/07/21 11:44:04;;;;;;;9.10;6.50;;;27.00;61.60;;;;;;5032962;28;20459;-76
2022/07/21 11:46:50;;;;;;;9.00;6.53;;;27.10;61.60;;;;;;5032239;28;20475;-76
2022/07/21 11:49:19;;;;;;;9.67;6.07;;;27.10;61.50;;;;;;5028224;28;20470;-77
2022/07/21 11:51:50;;;;;;;8.53;6.03;;;27.10;61.50;;;;;;5025211;28;20531;-76
2022/07/21 11:54:23;;;;;;;8.10;6.03;;;27.10;61.50;;;;;;5018845;28;21308;-76
2022/07/21 11:56:53;;;;;;;9.50;5.93;;;27.10;61.60;;;;;;5019759;28;20482;-76
2022/07/21 11:59:21;;;;;;;8.77;6.43;;;27.10;61.70;;;;;;5022366;28;20610;-77
2022/07/21 12:01:57;;;;;;;8.33;6.00;;;27.10;61.60;;;;;;5020671;28;20470;-77
2022/07/21 12:04:44;;;;;;;7.40;5.80;;;27.20;61.60;;;;;;5020241;28;21143;-76
2022/07/21 12:07:19;;;;;;;9.10;6.17;;;27.20;61.70;;;;;;5022418;28;20482;-76
2022/07/21 12:09:49;;;;;;;9.60;5.77;;;27.20;61.80;;;;;;5015838;28;20467;-76
2022/07/21 12:12:33;;;;;;;8.83;6.80;;;27.30;61.80;;;;;;5019054;28;20637;-78
2022/07/21 12:15:12;;;;;;;8.03;5.73;;;27.30;61.60;;;;;;5020664;28;20511;-78
2022/07/21 12:17:42;;;;;;;8.60;5.87;;;27.30;61.50;;;;;;5001903;28;21128;-79
2022/07/21 12:20:11;;;;;;;7.77;6.00;;;27.30;61.60;;;;;;5000503;28;20465;-78
2022/07/21 12:22:44;;;;;;;9.20;6.13;;;27.40;61.50;;;;;;5003554;28;20464;-78
2022/07/21 12:25:14;;;;;;;10.23;7.07;;;27.40;61.40;;;;;;5000920;28;20452;-78
2022/07/21 12:27:44;;;;;;;8.13;6.07;;;27.50;61.30;;;;;;4996953;28;20482;-78
2022/07/21 12:30:41;;;;;;;8.73;6.00;;;27.50;61.10;;;;;;5002628;28;20517;-78
2022/07/21 12:33:10;;;;;;;7.30;5.13;;;27.50;60.90;;;;;;5007054;28;20468;-78
2022/07/21 12:35:40;;;;;;;7.83;5.70;;;27.50;60.90;;;;;;5019025;28;20492;-78
2022/07/21 12:38:11;;;;;;;7.50;5.70;;;27.60;60.80;;;;;;5019464;28;21062;-79
2022/07/21 12:40:42;;;;;;;7.93;5.23;;;27.60;60.70;;;;;;5009900;28;20461;-78
2022/07/21 12:43:30;;;;;;;9.60;6.37;;;27.70;60.50;;;;;;5020865;28;20467;-79
2022/07/21 12:46:01;;;;;;;7.80;5.83;;;27.70;60.20;;;;;;5022653;28;20483;-79
2022/07/21 12:48:31;;;;;;;8.50;6.03;;;27.70;60.10;;;;;;5017808;28;20446;-78
2022/07/21 12:51:01;;;;;;;10.20;6.00;;;27.80;60.00;;;;;;5021669;28;20494;-78